GEC548 KDFW-LOWW
Flight info
| Callsign | GEC548 |
|---|---|
| Flight time | N/A |
| Altitude | 33000 |
| Route | FORCK3 FORCK ELD Q32 CRAMM BAZOO Q66 ALEAN KW42U HURTS CRPLR MGERK Q133 LEEAH CYN SAILN Q97 BEEKN EBONY N433B ELSIR 5050N 5140N 5130N 5120N DINIM ELSOX ARKIL SIDDI DAWLY L620 SAM M140 DVR UL9 KONAN UL607 KOK MATUG AMASI BOMBI DETEV DINKU BESNI ALUTU AKIMA MASUR |
| Aircraft | B77L/H-SDE1E2E3FGHIJ2J3J4J5M1RWXY/LB1D1 |
Departure
| Time | N/A |
|---|---|
| Airport | Dallas Fort Worth International Airport (KDFW) |
Arrival
| Time | 2026-04-25 22:00 |
|---|---|
| Airport | Vienna International Airport (LOWW) |
| Time | Latitude | Longitude | Altitude | Speed | Heading |
|---|---|---|---|---|---|
| 2026-04-25 17:38 | 51.06044 | -38.29495 | 32656 ft | 516 kts | 94° |
| 2026-04-25 17:38 | 51.06152 | -38.25647 | 32659 ft | 516 kts | 94° |
| 2026-04-25 17:38 | 51.06514 | -38.12386 | 32659 ft | 516 kts | 94° |
| 2026-04-25 17:39 | 51.06812 | -38.00998 | 32668 ft | 516 kts | 94° |
| 2026-04-25 17:39 | 51.07099 | -37.89587 | 32666 ft | 516 kts | 94° |
| 2026-04-25 17:40 | 51.07376 | -37.78191 | 32675 ft | 515 kts | 94° |
| 2026-04-25 17:40 | 51.07641 | -37.66809 | 32689 ft | 514 kts | 94° |
| 2026-04-25 17:41 | 51.07892 | -37.55515 | 32687 ft | 514 kts | 94° |
| 2026-04-25 17:41 | 51.08134 | -37.44165 | 32692 ft | 513 kts | 94° |
| 2026-04-25 17:42 | 51.08366 | -37.32806 | 32692 ft | 513 kts | 94° |
| 2026-04-25 17:42 | 51.08586 | -37.21434 | 32690 ft | 513 kts | 94° |
| 2026-04-25 17:43 | 51.08795 | -37.10065 | 32700 ft | 513 kts | 94° |
| 2026-04-25 17:43 | 51.08992 | -36.98772 | 32715 ft | 514 kts | 94° |
| 2026-04-25 17:44 | 51.09180 | -36.87372 | 32706 ft | 514 kts | 94° |
| 2026-04-25 17:44 | 51.09356 | -36.76002 | 32703 ft | 513 kts | 94° |
| 2026-04-25 17:45 | 51.09467 | -36.68480 | 32713 ft | 514 kts | 94° |
| 2026-04-25 17:45 | 51.09674 | -36.53344 | 32722 ft | 515 kts | 94° |
| 2026-04-25 17:46 | 51.09818 | -36.41947 | 32740 ft | 515 kts | 94° |
| 2026-04-25 17:46 | 51.09951 | -36.30573 | 32732 ft | 514 kts | 95° |
| 2026-04-25 17:47 | 51.10072 | -36.19197 | 32737 ft | 514 kts | 95° |
| 2026-04-25 17:47 | 51.10182 | -36.07814 | 32743 ft | 515 kts | 95° |
| 2026-04-25 17:48 | 51.10326 | -35.90709 | 32755 ft | 516 kts | 95° |
| 2026-04-25 17:49 | 51.10409 | -35.79299 | 32754 ft | 515 kts | 95° |
| 2026-04-25 17:49 | 51.10481 | -35.67895 | 32759 ft | 516 kts | 95° |
| 2026-04-25 17:50 | 51.10542 | -35.56480 | 32773 ft | 516 kts | 95° |
| 2026-04-25 17:50 | 51.10591 | -35.45072 | 32776 ft | 516 kts | 95° |
| 2026-04-25 17:51 | 51.10629 | -35.33649 | 32778 ft | 516 kts | 95° |
| 2026-04-25 17:51 | 51.10656 | -35.22222 | 32772 ft | 516 kts | 95° |
| 2026-04-25 17:52 | 51.10673 | -35.10805 | 32783 ft | 516 kts | 95° |
| 2026-04-25 17:52 | 51.10677 | -34.99380 | 32792 ft | 516 kts | 95° |
| 2026-04-25 17:53 | 51.10671 | -34.87947 | 32796 ft | 517 kts | 95° |
| 2026-04-25 17:53 | 51.10653 | -34.76498 | 32795 ft | 517 kts | 95° |
| 2026-04-25 17:54 | 51.10625 | -34.65042 | 32801 ft | 517 kts | 95° |
| 2026-04-25 17:54 | 51.10585 | -34.53586 | 32811 ft | 518 kts | 95° |
| 2026-04-25 17:55 | 51.10534 | -34.42138 | 32822 ft | 518 kts | 95° |
| 2026-04-25 17:55 | 51.10471 | -34.30622 | 32818 ft | 519 kts | 95° |
| 2026-04-25 17:56 | 51.10398 | -34.19145 | 32823 ft | 520 kts | 95° |
| 2026-04-25 17:56 | 51.10313 | -34.07633 | 32835 ft | 520 kts | 95° |
| 2026-04-25 17:57 | 51.10217 | -33.96134 | 32837 ft | 520 kts | 95° |
| 2026-04-25 17:57 | 51.10109 | -33.84619 | 32857 ft | 521 kts | 95° |
| 2026-04-25 17:58 | 51.09990 | -33.73098 | 32858 ft | 521 kts | 95° |
| 2026-04-25 17:58 | 51.09859 | -33.61541 | 32855 ft | 522 kts | 95° |
| 2026-04-25 17:59 | 51.09742 | -33.51948 | 32856 ft | 522 kts | 95° |
| 2026-04-25 17:59 | 51.09564 | -33.38472 | 32861 ft | 523 kts | 95° |
| 2026-04-25 18:00 | 51.09425 | -33.28747 | 33111 ft | 526 kts | 95° |
| 2026-04-25 18:00 | 51.09339 | -33.22922 | 33463 ft | 525 kts | 95° |
| 2026-04-25 18:00 | 51.09251 | -33.17191 | 33759 ft | 525 kts | 95° |
| 2026-04-25 18:01 | 51.09064 | -33.05558 | 33872 ft | 527 kts | 95° |
| 2026-04-25 18:01 | 51.08865 | -32.93911 | 33876 ft | 527 kts | 95° |
| 2026-04-25 18:02 | 51.08655 | -32.82253 | 33882 ft | 527 kts | 95° |
| 2026-04-25 18:02 | 51.08431 | -32.70566 | 33891 ft | 529 kts | 95° |
| 2026-04-25 18:03 | 51.08195 | -32.58846 | 33899 ft | 529 kts | 95° |
| 2026-04-25 18:03 | 51.07948 | -32.47131 | 33895 ft | 530 kts | 95° |
| 2026-04-25 18:04 | 51.07689 | -32.35387 | 33902 ft | 530 kts | 95° |
| 2026-04-25 18:04 | 51.07420 | -32.23735 | 33903 ft | 530 kts | 95° |
| 2026-04-25 18:05 | 51.07138 | -32.12003 | 33912 ft | 531 kts | 95° |
| 2026-04-25 18:05 | 51.06843 | -32.00246 | 33917 ft | 530 kts | 95° |
| 2026-04-25 18:06 | 51.06537 | -31.88529 | 33919 ft | 528 kts | 95° |
| 2026-04-25 18:06 | 51.06222 | -31.76886 | 33923 ft | 526 kts | 95° |
| 2026-04-25 18:07 | 51.05898 | -31.65338 | 33933 ft | 525 kts | 95° |
| 2026-04-25 18:07 | 51.05561 | -31.53782 | 33934 ft | 524 kts | 95° |
| 2026-04-25 18:08 | 51.05213 | -31.42191 | 33939 ft | 523 kts | 95° |
| 2026-04-25 18:08 | 51.04853 | -31.30611 | 33938 ft | 522 kts | 95° |
| 2026-04-25 18:09 | 51.04485 | -31.19120 | 33947 ft | 521 kts | 95° |
| 2026-04-25 18:09 | 51.04106 | -31.07672 | 33945 ft | 521 kts | 95° |
| 2026-04-25 18:10 | 51.03714 | -30.96161 | 33953 ft | 521 kts | 95° |
| 2026-04-25 18:10 | 51.03313 | -30.84673 | 33956 ft | 520 kts | 95° |
| 2026-04-25 18:11 | 51.02899 | -30.73190 | 33963 ft | 520 kts | 95° |
| 2026-04-25 18:11 | 51.02474 | -30.61701 | 33959 ft | 520 kts | 96° |
| 2026-04-25 18:12 | 51.02039 | -30.50234 | 33968 ft | 520 kts | 96° |
| 2026-04-25 18:12 | 51.01592 | -30.38759 | 33981 ft | 520 kts | 96° |
| 2026-04-25 18:13 | 51.01136 | -30.27345 | 33980 ft | 520 kts | 96° |
| 2026-04-25 18:13 | 51.00668 | -30.15890 | 33968 ft | 520 kts | 96° |
| 2026-04-25 18:14 | 51.00035 | -29.98682 | 33988 ft | 521 kts | 92° |
| 2026-04-25 18:14 | 51.00433 | -29.87175 | 33999 ft | 523 kts | 87° |
| 2026-04-25 18:15 | 51.00971 | -29.75660 | 33991 ft | 523 kts | 87° |
| 2026-04-25 18:15 | 51.01476 | -29.64108 | 33993 ft | 523 kts | 88° |
| 2026-04-25 18:16 | 51.01936 | -29.52581 | 33994 ft | 522 kts | 88° |
| 2026-04-25 18:17 | 51.02539 | -29.36598 | 33972 ft | 514 kts | 88° |
| 2026-04-25 18:17 | 51.02955 | -29.25219 | 34004 ft | 521 kts | 88° |
| 2026-04-25 18:18 | 51.03353 | -29.14087 | 34014 ft | 525 kts | 88° |
| 2026-04-25 18:18 | 51.03736 | -29.03138 | 34001 ft | 524 kts | 88° |
| 2026-04-25 18:19 | 51.04129 | -28.91576 | 33998 ft | 523 kts | 88° |
| 2026-04-25 18:19 | 51.04510 | -28.80035 | 34016 ft | 523 kts | 88° |
| 2026-04-25 18:20 | 51.04881 | -28.68448 | 34016 ft | 524 kts | 88° |
| 2026-04-25 18:20 | 51.05240 | -28.56856 | 34009 ft | 525 kts | 89° |
| 2026-04-25 18:21 | 51.05586 | -28.45323 | 34017 ft | 525 kts | 89° |
| 2026-04-25 18:21 | 51.05923 | -28.33697 | 34014 ft | 525 kts | 89° |
| 2026-04-25 18:22 | 51.06248 | -28.22072 | 34016 ft | 525 kts | 89° |
| 2026-04-25 18:22 | 51.06562 | -28.10463 | 34017 ft | 526 kts | 89° |
| 2026-04-25 18:23 | 51.06865 | -27.98812 | 34026 ft | 527 kts | 89° |
| 2026-04-25 18:23 | 51.07156 | -27.87178 | 34023 ft | 527 kts | 89° |
| 2026-04-25 18:24 | 51.07436 | -27.75522 | 34026 ft | 527 kts | 89° |
| 2026-04-25 18:24 | 51.07705 | -27.63860 | 34029 ft | 527 kts | 89° |
| 2026-04-25 18:25 | 51.07960 | -27.52265 | 34032 ft | 527 kts | 89° |
| 2026-04-25 18:25 | 51.08206 | -27.40592 | 34030 ft | 528 kts | 89° |
| 2026-04-25 18:26 | 51.08440 | -27.28919 | 34030 ft | 527 kts | 89° |
| 2026-04-25 18:26 | 51.08662 | -27.17254 | 34030 ft | 527 kts | 89° |
| 2026-04-25 18:27 | 51.08872 | -27.05576 | 34034 ft | 528 kts | 89° |
| 2026-04-25 18:27 | 51.09071 | -26.93914 | 34037 ft | 527 kts | 89° |
| 2026-04-25 18:28 | 51.09258 | -26.82269 | 34036 ft | 527 kts | 89° |
| 2026-04-25 18:28 | 51.09434 | -26.70585 | 34038 ft | 527 kts | 89° |
| 2026-04-25 18:29 | 51.09675 | -26.53154 | 34038 ft | 527 kts | 89° |
| 2026-04-25 18:30 | 51.09956 | -26.29816 | 34045 ft | 527 kts | 89° |
| 2026-04-25 18:30 | 51.10080 | -26.18160 | 34042 ft | 527 kts | 89° |
| 2026-04-25 18:31 | 51.10192 | -26.06494 | 34045 ft | 526 kts | 89° |
| 2026-04-25 18:31 | 51.10292 | -25.94854 | 34044 ft | 526 kts | 89° |
| 2026-04-25 18:32 | 51.10380 | -25.83212 | 34048 ft | 526 kts | 90° |
| 2026-04-25 18:32 | 51.10457 | -25.71575 | 34045 ft | 526 kts | 90° |
| 2026-04-25 18:33 | 51.10522 | -25.60016 | 34048 ft | 525 kts | 90° |
| 2026-04-25 18:33 | 51.10575 | -25.48387 | 34048 ft | 525 kts | 90° |
| 2026-04-25 18:34 | 51.10618 | -25.36781 | 34049 ft | 524 kts | 90° |
| 2026-04-25 18:34 | 51.10648 | -25.25161 | 34050 ft | 525 kts | 90° |
| 2026-04-25 18:35 | 51.10667 | -25.13540 | 34050 ft | 525 kts | 90° |
| 2026-04-25 18:35 | 51.10675 | -25.01905 | 34055 ft | 524 kts | 90° |
| 2026-04-25 18:36 | 51.10671 | -24.90298 | 34057 ft | 524 kts | 90° |
| 2026-04-25 18:36 | 51.10656 | -24.78771 | 34054 ft | 524 kts | 90° |
| 2026-04-25 18:37 | 51.10629 | -24.67168 | 34061 ft | 524 kts | 90° |
| 2026-04-25 18:37 | 51.10591 | -24.55579 | 34056 ft | 523 kts | 90° |
| 2026-04-25 18:38 | 51.10551 | -24.45966 | 34061 ft | 523 kts | 90° |
| 2026-04-25 18:38 | 51.10491 | -24.34366 | 34057 ft | 523 kts | 90° |
| 2026-04-25 18:39 | 51.10421 | -24.22793 | 34055 ft | 522 kts | 90° |
| 2026-04-25 18:39 | 51.10339 | -24.11228 | 34061 ft | 522 kts | 90° |
| 2026-04-25 18:40 | 51.10246 | -23.99671 | 34063 ft | 522 kts | 90° |
| 2026-04-25 18:40 | 51.10141 | -23.88120 | 34064 ft | 522 kts | 90° |
| 2026-04-25 18:41 | 51.10026 | -23.76652 | 34066 ft | 521 kts | 90° |
| 2026-04-25 18:41 | 51.09899 | -23.65096 | 34065 ft | 521 kts | 90° |
| 2026-04-25 18:42 | 51.09785 | -23.55510 | 34065 ft | 521 kts | 90° |
| 2026-04-25 18:42 | 51.09611 | -23.42036 | 34067 ft | 520 kts | 91° |
| 2026-04-25 18:43 | 51.09450 | -23.30534 | 34068 ft | 520 kts | 91° |
| 2026-04-25 18:43 | 51.09279 | -23.19036 | 34070 ft | 519 kts | 91° |
| 2026-04-25 18:44 | 51.09096 | -23.07561 | 34072 ft | 519 kts | 91° |
| 2026-04-25 18:44 | 51.08902 | -22.96096 | 34074 ft | 518 kts | 91° |
| 2026-04-25 18:45 | 51.08697 | -22.84657 | 34075 ft | 517 kts | 91° |
| 2026-04-25 18:45 | 51.08481 | -22.73199 | 34078 ft | 517 kts | 91° |
| 2026-04-25 18:46 | 51.08256 | -22.61849 | 34075 ft | 516 kts | 91° |
| 2026-04-25 18:46 | 51.08019 | -22.50463 | 34072 ft | 515 kts | 92° |
| 2026-04-25 18:47 | 51.07771 | -22.39082 | 34070 ft | 514 kts | 92° |
| 2026-04-25 18:47 | 51.07513 | -22.27750 | 34075 ft | 512 kts | 92° |
| 2026-04-25 18:48 | 51.07244 | -22.16409 | 34074 ft | 511 kts | 92° |
| 2026-04-25 18:48 | 51.06965 | -22.05125 | 34076 ft | 510 kts | 92° |
| 2026-04-25 18:49 | 51.06677 | -21.93880 | 34077 ft | 509 kts | 92° |
| 2026-04-25 18:49 | 51.06377 | -21.82622 | 34082 ft | 509 kts | 92° |
| 2026-04-25 18:50 | 51.06067 | -21.71380 | 34084 ft | 509 kts | 92° |
| 2026-04-25 18:50 | 51.05746 | -21.60118 | 34082 ft | 508 kts | 92° |
| 2026-04-25 18:51 | 51.05471 | -21.50797 | 34080 ft | 508 kts | 92° |
| 2026-04-25 18:51 | 51.05073 | -21.37695 | 34085 ft | 508 kts | 92° |
| 2026-04-25 18:52 | 51.04722 | -21.26539 | 34086 ft | 508 kts | 93° |
| 2026-04-25 18:52 | 51.04359 | -21.15305 | 34085 ft | 509 kts | 93° |
| 2026-04-25 18:53 | 51.03984 | -21.04068 | 34085 ft | 509 kts | 93° |
| 2026-04-25 18:53 | 51.03598 | -20.92814 | 34082 ft | 509 kts | 94° |
| 2026-04-25 18:54 | 51.02999 | -20.75945 | 34090 ft | 510 kts | 94° |
| 2026-04-25 18:55 | 51.02584 | -20.64663 | 34091 ft | 510 kts | 94° |
| 2026-04-25 18:55 | 51.02163 | -20.53472 | 34094 ft | 510 kts | 95° |
| 2026-04-25 18:56 | 51.01727 | -20.42217 | 34091 ft | 511 kts | 95° |
| 2026-04-25 18:56 | 51.01281 | -20.30954 | 34096 ft | 511 kts | 95° |
| 2026-04-25 18:57 | 51.00824 | -20.19682 | 34096 ft | 511 kts | 95° |
| 2026-04-25 18:57 | 51.00359 | -20.08440 | 34092 ft | 512 kts | 96° |
| 2026-04-25 18:58 | 50.99994 | -19.97110 | 34091 ft | 514 kts | 91° |
| 2026-04-25 18:58 | 51.00352 | -19.80043 | 34096 ft | 516 kts | 90° |
| 2026-04-25 18:59 | 51.00837 | -19.57234 | 34096 ft | 517 kts | 91° |
| 2026-04-25 19:00 | 51.01125 | -19.40132 | 34102 ft | 516 kts | 91° |
| 2026-04-25 19:01 | 51.01388 | -19.23003 | 34099 ft | 516 kts | 91° |
| 2026-04-25 19:01 | 51.01551 | -19.11602 | 34107 ft | 516 kts | 91° |
| 2026-04-25 19:02 | 51.01774 | -18.94540 | 34107 ft | 515 kts | 92° |
| 2026-04-25 19:03 | 51.01930 | -18.81308 | 34119 ft | 515 kts | 92° |
| 2026-04-25 19:03 | 51.02089 | -18.66197 | 34112 ft | 514 kts | 92° |
| 2026-04-25 19:04 | 51.02246 | -18.49170 | 34119 ft | 514 kts | 92° |
| 2026-04-25 19:05 | 51.02416 | -18.26501 | 34119 ft | 513 kts | 92° |
| 2026-04-25 19:06 | 51.02485 | -18.15175 | 34125 ft | 513 kts | 93° |
| 2026-04-25 19:06 | 51.02567 | -17.98178 | 34123 ft | 512 kts | 93° |
| 2026-04-25 19:07 | 51.02624 | -17.81196 | 34124 ft | 512 kts | 93° |
| 2026-04-25 19:08 | 51.02657 | -17.64262 | 34131 ft | 511 kts | 93° |
| 2026-04-25 19:09 | 51.02665 | -17.45440 | 34133 ft | 510 kts | 94° |
| 2026-04-25 19:10 | 51.02639 | -17.24799 | 34136 ft | 510 kts | 94° |
| 2026-04-25 19:10 | 51.02609 | -17.13541 | 34138 ft | 509 kts | 94° |
| 2026-04-25 19:11 | 51.02569 | -17.02348 | 34141 ft | 509 kts | 94° |
| 2026-04-25 19:11 | 51.02518 | -16.91107 | 34145 ft | 509 kts | 94° |
| 2026-04-25 19:12 | 51.02456 | -16.79875 | 34143 ft | 508 kts | 94° |
| 2026-04-25 19:12 | 51.02383 | -16.68638 | 34143 ft | 508 kts | 94° |
| 2026-04-25 19:13 | 51.02300 | -16.57402 | 34142 ft | 508 kts | 94° |
| 2026-04-25 19:13 | 51.02206 | -16.46173 | 34148 ft | 508 kts | 95° |
| 2026-04-25 19:14 | 51.02101 | -16.34936 | 34154 ft | 508 kts | 95° |
| 2026-04-25 19:14 | 51.01986 | -16.23760 | 34153 ft | 507 kts | 95° |
| 2026-04-25 19:15 | 51.01860 | -16.12531 | 34153 ft | 507 kts | 95° |
| 2026-04-25 19:15 | 51.01724 | -16.01406 | 34154 ft | 507 kts | 95° |
| 2026-04-25 19:16 | 51.01576 | -15.90146 | 34160 ft | 507 kts | 95° |
| 2026-04-25 19:16 | 51.01445 | -15.80825 | 34158 ft | 507 kts | 95° |
| 2026-04-25 19:17 | 51.01277 | -15.69616 | 34164 ft | 508 kts | 95° |
| 2026-04-25 19:17 | 51.01099 | -15.58374 | 34171 ft | 508 kts | 95° |
| 2026-04-25 19:18 | 51.00910 | -15.47158 | 34160 ft | 509 kts | 95° |
| 2026-04-25 19:18 | 51.00711 | -15.35950 | 34170 ft | 509 kts | 95° |
| 2026-04-25 19:19 | 51.00500 | -15.24725 | 34174 ft | 509 kts | 96° |
| 2026-04-25 19:19 | 51.00278 | -15.13442 | 34175 ft | 509 kts | 96° |
| 2026-04-25 19:20 | 51.00047 | -15.02165 | 34170 ft | 510 kts | 96° |
| 2026-04-25 19:20 | 50.99933 | -14.90980 | 34175 ft | 511 kts | 93° |
| 2026-04-25 19:21 | 51.00018 | -14.79638 | 34173 ft | 512 kts | 93° |
| 2026-04-25 19:21 | 51.00103 | -14.62673 | 34179 ft | 512 kts | 94° |
| 2026-04-25 19:22 | 51.00110 | -14.51371 | 34182 ft | 512 kts | 94° |
| 2026-04-25 19:23 | 51.00095 | -14.34367 | 34184 ft | 512 kts | 94° |
| 2026-04-25 19:23 | 51.00060 | -14.17389 | 34184 ft | 513 kts | 94° |
| 2026-04-25 19:24 | 51.00025 | -14.06138 | 34190 ft | 513 kts | 94° |
| 2026-04-25 19:25 | 50.99568 | -13.83505 | 34192 ft | 512 kts | 97° |
| 2026-04-25 19:25 | 50.99128 | -13.72183 | 34191 ft | 513 kts | 97° |
| 2026-04-25 19:26 | 50.98714 | -13.60935 | 34195 ft | 513 kts | 97° |
| 2026-04-25 19:26 | 50.98315 | -13.49628 | 34200 ft | 513 kts | 97° |
| 2026-04-25 19:27 | 50.97981 | -13.40213 | 34195 ft | 513 kts | 97° |
| 2026-04-25 19:27 | 50.97497 | -13.26957 | 34200 ft | 513 kts | 97° |
| 2026-04-25 19:28 | 50.97072 | -13.15704 | 34203 ft | 514 kts | 97° |
| 2026-04-25 19:28 | 50.96632 | -13.04375 | 34200 ft | 514 kts | 97° |
| 2026-04-25 19:29 | 50.96180 | -12.93037 | 34197 ft | 515 kts | 97° |
| 2026-04-25 19:29 | 50.95718 | -12.81712 | 34204 ft | 515 kts | 97° |
| 2026-04-25 19:30 | 50.95244 | -12.70358 | 34207 ft | 516 kts | 97° |
| 2026-04-25 19:30 | 50.94758 | -12.58978 | 34203 ft | 516 kts | 97° |
| 2026-04-25 19:31 | 50.94261 | -12.47609 | 34203 ft | 517 kts | 98° |
| 2026-04-25 19:31 | 50.93753 | -12.36239 | 34206 ft | 517 kts | 98° |
| 2026-04-25 19:32 | 50.93234 | -12.24876 | 34203 ft | 517 kts | 98° |
| 2026-04-25 19:32 | 50.92795 | -12.15449 | 34209 ft | 517 kts | 98° |
| 2026-04-25 19:33 | 50.92161 | -12.02100 | 34212 ft | 518 kts | 98° |
| 2026-04-25 19:33 | 50.91610 | -11.90778 | 34214 ft | 518 kts | 98° |
| 2026-04-25 19:34 | 50.91043 | -11.79354 | 34215 ft | 519 kts | 98° |
| 2026-04-25 19:34 | 50.90469 | -11.67996 | 34211 ft | 519 kts | 98° |
| 2026-04-25 19:35 | 50.89879 | -11.56553 | 34216 ft | 520 kts | 98° |
| 2026-04-25 19:35 | 50.89279 | -11.45135 | 34215 ft | 520 kts | 98° |
| 2026-04-25 19:36 | 50.88671 | -11.33788 | 34215 ft | 520 kts | 98° |
| 2026-04-25 19:36 | 50.88047 | -11.22340 | 34213 ft | 521 kts | 98° |
| 2026-04-25 19:37 | 50.87411 | -11.10896 | 34216 ft | 522 kts | 98° |
| 2026-04-25 19:37 | 50.86764 | -10.99434 | 34216 ft | 522 kts | 98° |
| 2026-04-25 19:38 | 50.86103 | -10.87943 | 34219 ft | 523 kts | 98° |
| 2026-04-25 19:38 | 50.85435 | -10.76531 | 34217 ft | 523 kts | 98° |
| 2026-04-25 19:39 | 50.84754 | -10.65090 | 34218 ft | 524 kts | 98° |
| 2026-04-25 19:39 | 50.84058 | -10.53589 | 34223 ft | 524 kts | 98° |
| 2026-04-25 19:40 | 50.83350 | -10.42078 | 34222 ft | 524 kts | 98° |
| 2026-04-25 19:40 | 50.82635 | -10.30636 | 34222 ft | 524 kts | 98° |
| 2026-04-25 19:41 | 50.81905 | -10.19137 | 34222 ft | 525 kts | 99° |
| 2026-04-25 19:41 | 50.81410 | -10.11453 | 34225 ft | 525 kts | 99° |
| 2026-04-25 19:42 | 50.80409 | -9.96124 | 34217 ft | 526 kts | 99° |
| 2026-04-25 19:42 | 50.79642 | -9.84599 | 34215 ft | 526 kts | 99° |
| 2026-04-25 19:43 | 50.78865 | -9.73094 | 34216 ft | 526 kts | 99° |
| 2026-04-25 19:43 | 50.78080 | -9.61634 | 34219 ft | 527 kts | 99° |
| 2026-04-25 19:44 | 50.77278 | -9.50094 | 34220 ft | 527 kts | 99° |
| 2026-04-25 19:44 | 50.76464 | -9.38558 | 34224 ft | 528 kts | 99° |
| 2026-04-25 19:45 | 50.75640 | -9.27037 | 34220 ft | 528 kts | 99° |
| 2026-04-25 19:45 | 50.74804 | -9.15528 | 34220 ft | 528 kts | 99° |
| 2026-04-25 19:46 | 50.73955 | -9.03985 | 34215 ft | 529 kts | 99° |
| 2026-04-25 19:46 | 50.73095 | -8.92449 | 34216 ft | 529 kts | 99° |
| 2026-04-25 19:47 | 50.72228 | -8.80982 | 34225 ft | 529 kts | 99° |
| 2026-04-25 19:47 | 50.71344 | -8.69454 | 34226 ft | 529 kts | 99° |
| 2026-04-25 19:48 | 50.70449 | -8.57910 | 34222 ft | 529 kts | 99° |
| 2026-04-25 19:48 | 50.69541 | -8.46375 | 34223 ft | 529 kts | 99° |
| 2026-04-25 19:49 | 50.68934 | -8.38729 | 34226 ft | 529 kts | 99° |
| 2026-04-25 19:49 | 50.67697 | -8.23365 | 34223 ft | 530 kts | 99° |
| 2026-04-25 19:50 | 50.66284 | -8.06094 | 34223 ft | 530 kts | 99° |
| 2026-04-25 19:51 | 50.65584 | -7.94514 | 34230 ft | 531 kts | 94° |
| 2026-04-25 19:51 | 50.65391 | -7.82897 | 34235 ft | 532 kts | 92° |
| 2026-04-25 19:52 | 50.65225 | -7.71226 | 34228 ft | 532 kts | 93° |
| 2026-04-25 19:52 | 50.65014 | -7.59542 | 34231 ft | 532 kts | 93° |
| 2026-04-25 19:53 | 50.64768 | -7.47889 | 34231 ft | 532 kts | 93° |
| 2026-04-25 19:53 | 50.64506 | -7.36247 | 34227 ft | 532 kts | 93° |
| 2026-04-25 19:54 | 50.64281 | -7.26572 | 34229 ft | 532 kts | 93° |
| 2026-04-25 19:54 | 50.64000 | -7.14896 | 34227 ft | 532 kts | 93° |
| 2026-04-25 19:55 | 50.63661 | -7.01348 | 34230 ft | 532 kts | 93° |
| 2026-04-25 19:55 | 50.63406 | -6.91584 | 34229 ft | 532 kts | 93° |
| 2026-04-25 19:56 | 50.63092 | -6.79936 | 34231 ft | 532 kts | 93° |
| 2026-04-25 19:56 | 50.62766 | -6.68297 | 34230 ft | 532 kts | 93° |
| 2026-04-25 19:57 | 50.62429 | -6.56671 | 34232 ft | 533 kts | 93° |
| 2026-04-25 19:57 | 50.62255 | -6.50814 | 34400 ft | 535 kts | 93° |
| 2026-04-25 19:57 | 50.62078 | -6.44979 | 34758 ft | 533 kts | 93° |
| 2026-04-25 19:57 | 50.61900 | -6.39166 | 35158 ft | 530 kts | 93° |
| 2026-04-25 19:58 | 50.61719 | -6.33376 | 35536 ft | 528 kts | 93° |
| 2026-04-25 19:58 | 50.61536 | -6.27598 | 35868 ft | 526 kts | 93° |
| 2026-04-25 19:58 | 50.61352 | -6.21899 | 36138 ft | 526 kts | 93° |
| 2026-04-25 19:59 | 50.60972 | -6.10364 | 36224 ft | 526 kts | 93° |
| 2026-04-25 19:59 | 50.60580 | -5.98842 | 36226 ft | 526 kts | 93° |
| 2026-04-25 20:00 | 50.60178 | -5.87338 | 36235 ft | 525 kts | 93° |
| 2026-04-25 20:00 | 50.59767 | -5.75917 | 36227 ft | 524 kts | 93° |
| 2026-04-25 20:01 | 50.59128 | -5.58713 | 36228 ft | 524 kts | 93° |
| 2026-04-25 20:01 | 50.58687 | -5.47250 | 36223 ft | 524 kts | 93° |
| 2026-04-25 20:02 | 50.58238 | -5.35837 | 36216 ft | 524 kts | 93° |
| 2026-04-25 20:02 | 50.57773 | -5.24342 | 36222 ft | 524 kts | 94° |
| 2026-04-25 20:03 | 50.57300 | -5.12907 | 36222 ft | 524 kts | 94° |
| 2026-04-25 20:03 | 50.56815 | -5.01450 | 36214 ft | 523 kts | 94° |
| 2026-04-25 20:04 | 50.56323 | -4.90097 | 36217 ft | 520 kts | 94° |
| 2026-04-25 20:04 | 50.55820 | -4.78756 | 36220 ft | 518 kts | 94° |
| 2026-04-25 20:05 | 50.55310 | -4.67490 | 36218 ft | 518 kts | 94° |
| 2026-04-25 20:05 | 50.54786 | -4.56169 | 36222 ft | 519 kts | 94° |
| 2026-04-25 20:06 | 50.54251 | -4.44860 | 36226 ft | 519 kts | 94° |
| 2026-04-25 20:06 | 50.53707 | -4.33575 | 36225 ft | 518 kts | 94° |
| 2026-04-25 20:07 | 50.53150 | -4.22251 | 36227 ft | 518 kts | 94° |
| 2026-04-25 20:07 | 50.52585 | -4.10972 | 36235 ft | 517 kts | 94° |
| 2026-04-25 20:08 | 50.52110 | -3.99752 | 36222 ft | 517 kts | 89° |
| 2026-04-25 20:08 | 50.52654 | -3.88493 | 36223 ft | 514 kts | 79° |
| 2026-04-25 20:09 | 50.53951 | -3.77483 | 36232 ft | 514 kts | 78° |
| 2026-04-25 20:09 | 50.55234 | -3.66430 | 36236 ft | 514 kts | 78° |
| 2026-04-25 20:10 | 50.56452 | -3.55357 | 36222 ft | 513 kts | 79° |
| 2026-04-25 20:10 | 50.57759 | -3.44357 | 36217 ft | 511 kts | 74° |
| 2026-04-25 20:11 | 50.59765 | -3.33606 | 36219 ft | 510 kts | 71° |
| 2026-04-25 20:11 | 50.61848 | -3.22922 | 36217 ft | 510 kts | 71° |
| 2026-04-25 20:12 | 50.63870 | -3.12270 | 36221 ft | 510 kts | 72° |
| 2026-04-25 20:12 | 50.65208 | -3.05094 | 36223 ft | 509 kts | 72° |
| 2026-04-25 20:13 | 50.67849 | -2.90832 | 36231 ft | 509 kts | 72° |
| 2026-04-25 20:13 | 50.69817 | -2.80162 | 36236 ft | 509 kts | 72° |
| 2026-04-25 20:14 | 50.71452 | -2.69244 | 36223 ft | 509 kts | 77° |
| 2026-04-25 20:14 | 50.72790 | -2.58300 | 36227 ft | 509 kts | 78° |
| 2026-04-25 20:15 | 50.74124 | -2.47318 | 36230 ft | 509 kts | 78° |
| 2026-04-25 20:15 | 50.75497 | -2.36328 | 36232 ft | 508 kts | 77° |
| 2026-04-25 20:16 | 50.76878 | -2.25383 | 36239 ft | 508 kts | 77° |
| 2026-04-25 20:16 | 50.78254 | -2.14412 | 36239 ft | 508 kts | 77° |
| 2026-04-25 20:17 | 50.79606 | -2.03516 | 36239 ft | 508 kts | 78° |
| 2026-04-25 20:17 | 50.80957 | -1.92525 | 36238 ft | 508 kts | 78° |
| 2026-04-25 20:18 | 50.82285 | -1.81636 | 36241 ft | 508 kts | 78° |
| 2026-04-25 20:18 | 50.83518 | -1.71440 | 36238 ft | 507 kts | 78° |
| 2026-04-25 20:19 | 50.84777 | -1.60940 | 36239 ft | 508 kts | 78° |
| 2026-04-25 20:19 | 50.86036 | -1.50366 | 36240 ft | 508 kts | 78° |
| 2026-04-25 20:20 | 50.87343 | -1.39294 | 36241 ft | 508 kts | 78° |
| 2026-04-25 20:20 | 50.88631 | -1.28291 | 36240 ft | 507 kts | 78° |
| 2026-04-25 20:21 | 50.89909 | -1.17279 | 36236 ft | 507 kts | 78° |
| 2026-04-25 20:21 | 50.91164 | -1.06361 | 36237 ft | 507 kts | 78° |
| 2026-04-25 20:22 | 50.92006 | -0.98990 | 36237 ft | 507 kts | 78° |
| 2026-04-25 20:22 | 50.93662 | -0.84363 | 36227 ft | 507 kts | 79° |
| 2026-04-25 20:23 | 50.94899 | -0.73319 | 36231 ft | 507 kts | 79° |
| 2026-04-25 20:23 | 50.96120 | -0.62327 | 36221 ft | 507 kts | 79° |
| 2026-04-25 20:24 | 50.97334 | -0.51293 | 36237 ft | 506 kts | 79° |
| 2026-04-25 20:24 | 50.98533 | -0.40294 | 36234 ft | 506 kts | 79° |
| 2026-04-25 20:25 | 50.99722 | -0.29291 | 36243 ft | 506 kts | 79° |
| 2026-04-25 20:25 | 51.00908 | -0.18208 | 36244 ft | 507 kts | 79° |
| 2026-04-25 20:26 | 51.02079 | -0.07168 | 36238 ft | 506 kts | 79° |
| 2026-04-25 20:26 | 51.03235 | 0.03835 | 36239 ft | 506 kts | 79° |
| 2026-04-25 20:27 | 51.04386 | 0.14899 | 36265 ft | 506 kts | 79° |
| 2026-04-25 20:27 | 51.05523 | 0.25925 | 36280 ft | 506 kts | 80° |
| 2026-04-25 20:28 | 51.06651 | 0.36983 | 36287 ft | 506 kts | 80° |
| 2026-04-25 20:28 | 51.07768 | 0.48027 | 36292 ft | 506 kts | 80° |
| 2026-04-25 20:29 | 51.08872 | 0.59061 | 36286 ft | 506 kts | 80° |
| 2026-04-25 20:29 | 51.09969 | 0.70127 | 36271 ft | 505 kts | 80° |
| 2026-04-25 20:30 | 51.11052 | 0.81172 | 36241 ft | 505 kts | 80° |
| 2026-04-25 20:30 | 51.12124 | 0.92209 | 36242 ft | 505 kts | 80° |
| 2026-04-25 20:31 | 51.13185 | 1.03242 | 36509 ft | 507 kts | 80° |
| 2026-04-25 20:31 | 51.13716 | 1.08804 | 36860 ft | 505 kts | 81° |
| 2026-04-25 20:31 | 51.14240 | 1.14325 | 37178 ft | 504 kts | 81° |
| 2026-04-25 20:32 | 51.15279 | 1.25340 | 37241 ft | 504 kts | 81° |
| 2026-04-25 20:32 | 51.16100 | 1.36414 | 37246 ft | 503 kts | 87° |
| 2026-04-25 20:33 | 51.15904 | 1.45765 | 37255 ft | 503 kts | 94° |
| 2026-04-25 20:33 | 51.15398 | 1.54995 | 37251 ft | 503 kts | 95° |
| 2026-04-25 20:34 | 51.14707 | 1.67901 | 37244 ft | 504 kts | 94° |
| 2026-04-25 20:34 | 51.14146 | 1.79097 | 37242 ft | 503 kts | 94° |
| 2026-04-25 20:35 | 51.13585 | 1.90193 | 37241 ft | 503 kts | 94° |
| 2026-04-25 20:35 | 51.13011 | 2.01264 | 37238 ft | 503 kts | 94° |
| 2026-04-25 20:36 | 51.12420 | 2.12372 | 37241 ft | 503 kts | 94° |
| 2026-04-25 20:36 | 51.11828 | 2.23288 | 37242 ft | 503 kts | 94° |
| 2026-04-25 20:37 | 51.11218 | 2.34386 | 37238 ft | 503 kts | 94° |
| 2026-04-25 20:37 | 51.10601 | 2.45437 | 37239 ft | 503 kts | 94° |
| 2026-04-25 20:38 | 51.09968 | 2.56597 | 37242 ft | 503 kts | 95° |
| 2026-04-25 20:38 | 51.09124 | 2.67629 | 37242 ft | 503 kts | 101° |
| 2026-04-25 20:39 | 51.07400 | 2.78356 | 37241 ft | 504 kts | 105° |
| 2026-04-25 20:39 | 51.05843 | 2.87388 | 37237 ft | 504 kts | 105° |
| 2026-04-25 20:40 | 51.03696 | 2.99970 | 37237 ft | 504 kts | 105° |
| 2026-04-25 20:40 | 51.01886 | 3.10716 | 37234 ft | 503 kts | 105° |
| 2026-04-25 20:41 | 51.00074 | 3.21462 | 37230 ft | 504 kts | 105° |
| 2026-04-25 20:41 | 50.98250 | 3.32207 | 37222 ft | 504 kts | 105° |
| 2026-04-25 20:42 | 50.96420 | 3.42913 | 37220 ft | 504 kts | 105° |
| 2026-04-25 20:42 | 50.94569 | 3.53667 | 37217 ft | 504 kts | 105° |
| 2026-04-25 20:43 | 50.92717 | 3.64359 | 37215 ft | 504 kts | 105° |
| 2026-04-25 20:43 | 50.90839 | 3.75140 | 37214 ft | 505 kts | 105° |
| 2026-04-25 20:44 | 50.88961 | 3.85851 | 37218 ft | 505 kts | 106° |
| 2026-04-25 20:44 | 50.87088 | 3.96477 | 37221 ft | 505 kts | 106° |
| 2026-04-25 20:45 | 50.85210 | 4.07067 | 37225 ft | 505 kts | 106° |
| 2026-04-25 20:45 | 50.83315 | 4.17686 | 37230 ft | 506 kts | 106° |
| 2026-04-25 20:46 | 50.81384 | 4.28446 | 37233 ft | 506 kts | 106° |
| 2026-04-25 20:46 | 50.79450 | 4.39158 | 37238 ft | 506 kts | 106° |
| 2026-04-25 20:47 | 50.77515 | 4.49809 | 37237 ft | 507 kts | 106° |
| 2026-04-25 20:47 | 50.75561 | 4.60508 | 37233 ft | 507 kts | 107° |
| 2026-04-25 20:48 | 50.73594 | 4.71211 | 37224 ft | 508 kts | 107° |
| 2026-04-25 20:48 | 50.71622 | 4.81886 | 37222 ft | 508 kts | 107° |
| 2026-04-25 20:49 | 50.69620 | 4.92654 | 37212 ft | 508 kts | 107° |
| 2026-04-25 20:49 | 50.67624 | 5.03331 | 37210 ft | 508 kts | 107° |
| 2026-04-25 20:50 | 50.65615 | 5.14016 | 37211 ft | 508 kts | 107° |
| 2026-04-25 20:50 | 50.63607 | 5.24634 | 37213 ft | 509 kts | 107° |
| 2026-04-25 20:51 | 50.61575 | 5.35318 | 37214 ft | 509 kts | 107° |
| 2026-04-25 20:51 | 50.59535 | 5.45984 | 37213 ft | 509 kts | 107° |
| 2026-04-25 20:52 | 50.57817 | 5.54922 | 37214 ft | 509 kts | 107° |
| 2026-04-25 20:52 | 50.55421 | 5.67315 | 37209 ft | 509 kts | 107° |
| 2026-04-25 20:53 | 50.53350 | 5.77960 | 37201 ft | 509 kts | 108° |
| 2026-04-25 20:53 | 50.51267 | 5.88613 | 37193 ft | 509 kts | 108° |
| 2026-04-25 20:54 | 50.49174 | 5.99254 | 37180 ft | 510 kts | 108° |
| 2026-04-25 20:54 | 50.47066 | 6.09916 | 37172 ft | 510 kts | 108° |
| 2026-04-25 20:55 | 50.44953 | 6.20546 | 37170 ft | 510 kts | 108° |
| 2026-04-25 20:55 | 50.42834 | 6.31158 | 37171 ft | 510 kts | 108° |
| 2026-04-25 20:56 | 50.40909 | 6.41895 | 37162 ft | 511 kts | 103° |
| 2026-04-25 20:56 | 50.39422 | 6.52807 | 37165 ft | 511 kts | 102° |
| 2026-04-25 20:57 | 50.37952 | 6.63746 | 37171 ft | 512 kts | 102° |
| 2026-04-25 20:57 | 50.36443 | 6.74654 | 37175 ft | 513 kts | 102° |
| 2026-04-25 20:58 | 50.34902 | 6.85588 | 37184 ft | 513 kts | 102° |
| 2026-04-25 20:58 | 50.33352 | 6.96487 | 37186 ft | 513 kts | 102° |
| 2026-04-25 20:59 | 50.31791 | 7.07405 | 37185 ft | 513 kts | 102° |
| 2026-04-25 20:59 | 50.30230 | 7.18248 | 37188 ft | 514 kts | 102° |
| 2026-04-25 21:00 | 50.29173 | 7.25545 | 37184 ft | 515 kts | 102° |
| 2026-04-25 21:01 | 50.26244 | 7.45603 | 37182 ft | 515 kts | 102° |
| 2026-04-25 21:01 | 50.24644 | 7.56458 | 37173 ft | 515 kts | 102° |
| 2026-04-25 21:02 | 50.23019 | 7.67393 | 37177 ft | 515 kts | 102° |
| 2026-04-25 21:02 | 50.21395 | 7.78263 | 37168 ft | 516 kts | 102° |
| 2026-04-25 21:03 | 50.19748 | 7.89226 | 37168 ft | 516 kts | 102° |
| 2026-04-25 21:03 | 50.18101 | 8.00112 | 37167 ft | 516 kts | 102° |
| 2026-04-25 21:04 | 50.16442 | 8.11000 | 37160 ft | 516 kts | 102° |
| 2026-04-25 21:04 | 50.14725 | 8.21839 | 37163 ft | 517 kts | 107° |
| 2026-04-25 21:05 | 50.11604 | 8.31941 | 37158 ft | 518 kts | 125° |
| 2026-04-25 21:05 | 50.07653 | 8.38987 | 37163 ft | 517 kts | 139° |
| 2026-04-25 21:06 | 50.02164 | 8.46163 | 37162 ft | 517 kts | 143° |
| 2026-04-25 21:06 | 49.96465 | 8.53148 | 37157 ft | 518 kts | 143° |
| 2026-04-25 21:07 | 49.90841 | 8.59975 | 37155 ft | 517 kts | 143° |
| 2026-04-25 21:07 | 49.85100 | 8.66907 | 37154 ft | 517 kts | 143° |
| 2026-04-25 21:08 | 49.79394 | 8.73778 | 37146 ft | 517 kts | 143° |
| 2026-04-25 21:08 | 49.74191 | 8.81366 | 37143 ft | 519 kts | 128° |
| 2026-04-25 21:09 | 49.69476 | 8.96266 | 37144 ft | 518 kts | 103° |
| 2026-04-25 21:09 | 49.67955 | 9.07207 | 37155 ft | 517 kts | 99° |
| 2026-04-25 21:10 | 49.66154 | 9.17965 | 37152 ft | 519 kts | 110° |
| 2026-04-25 21:10 | 49.62980 | 9.27918 | 37150 ft | 519 kts | 118° |
| 2026-04-25 21:11 | 49.59467 | 9.37693 | 37145 ft | 519 kts | 118° |
| 2026-04-25 21:11 | 49.56004 | 9.47506 | 37142 ft | 520 kts | 118° |
| 2026-04-25 21:12 | 49.52559 | 9.57323 | 37138 ft | 520 kts | 117° |
| 2026-04-25 21:12 | 49.49682 | 9.65500 | 37131 ft | 520 kts | 117° |
| 2026-04-25 21:13 | 49.45631 | 9.76952 | 37131 ft | 520 kts | 118° |
| 2026-04-25 21:13 | 49.42138 | 9.86780 | 37130 ft | 521 kts | 118° |
| 2026-04-25 21:14 | 49.38659 | 9.96532 | 37130 ft | 521 kts | 118° |
| 2026-04-25 21:14 | 49.35158 | 10.06308 | 37132 ft | 522 kts | 118° |
| 2026-04-25 21:15 | 49.31654 | 10.16060 | 37133 ft | 521 kts | 118° |
| 2026-04-25 21:15 | 49.28145 | 10.25790 | 37144 ft | 521 kts | 118° |
| 2026-04-25 21:16 | 49.24489 | 10.35420 | 37133 ft | 521 kts | 124° |
| 2026-04-25 21:16 | 49.19939 | 10.43990 | 37139 ft | 521 kts | 135° |
| 2026-04-25 21:17 | 49.14718 | 10.51674 | 37147 ft | 521 kts | 137° |
| 2026-04-25 21:17 | 49.09451 | 10.59335 | 37146 ft | 521 kts | 136° |
| 2026-04-25 21:18 | 49.04222 | 10.67019 | 37154 ft | 522 kts | 136° |
| 2026-04-25 21:18 | 48.99010 | 10.74704 | 37148 ft | 521 kts | 136° |
| 2026-04-25 21:19 | 48.94597 | 10.83436 | 37143 ft | 520 kts | 118° |
| 2026-04-25 21:19 | 48.91851 | 10.93533 | 37137 ft | 518 kts | 105° |
| 2026-04-25 21:20 | 48.90460 | 11.00613 | 37124 ft | 518 kts | 104° |
| 2026-04-25 21:20 | 48.87743 | 11.14627 | 37108 ft | 518 kts | 105° |
| 2026-04-25 21:21 | 48.85634 | 11.25116 | 37103 ft | 518 kts | 105° |
| 2026-04-25 21:21 | 48.83496 | 11.35532 | 37106 ft | 518 kts | 105° |
| 2026-04-25 21:22 | 48.81344 | 11.45944 | 37106 ft | 518 kts | 105° |
| 2026-04-25 21:22 | 48.79165 | 11.56451 | 37107 ft | 519 kts | 105° |
| 2026-04-25 21:23 | 48.76998 | 11.66862 | 37103 ft | 519 kts | 105° |
| 2026-04-25 21:23 | 48.74818 | 11.77279 | 37110 ft | 519 kts | 106° |
| 2026-04-25 21:24 | 48.72627 | 11.87693 | 37109 ft | 519 kts | 106° |
| 2026-04-25 21:24 | 48.70423 | 11.98116 | 37104 ft | 519 kts | 106° |
| 2026-04-25 21:25 | 48.68208 | 12.08534 | 37105 ft | 519 kts | 106° |
| 2026-04-25 21:25 | 48.66004 | 12.18869 | 37083 ft | 511 kts | 106° |
| 2026-04-25 21:26 | 48.63838 | 12.29012 | 36896 ft | 502 kts | 106° |
| 2026-04-25 21:26 | 48.62761 | 12.34029 | 36788 ft | 506 kts | 106° |
| 2026-04-25 21:26 | 48.61676 | 12.39066 | 36810 ft | 509 kts | 106° |
| 2026-04-25 21:27 | 48.59463 | 12.49268 | 36792 ft | 511 kts | 106° |
| 2026-04-25 21:27 | 48.57223 | 12.59527 | 36600 ft | 511 kts | 106° |
| 2026-04-25 21:28 | 48.56125 | 12.64537 | 36329 ft | 507 kts | 106° |
| 2026-04-25 21:28 | 48.55015 | 12.69590 | 36078 ft | 503 kts | 106° |
| 2026-04-25 21:28 | 48.53909 | 12.74619 | 35804 ft | 501 kts | 106° |
| 2026-04-25 21:28 | 48.52813 | 12.79588 | 35499 ft | 499 kts | 106° |
| 2026-04-25 21:29 | 48.51720 | 12.84534 | 35203 ft | 496 kts | 107° |
| 2026-04-25 21:29 | 48.50981 | 12.87868 | 35015 ft | 494 kts | 107° |
| 2026-04-25 21:29 | 48.49540 | 12.94363 | 34621 ft | 491 kts | 107° |
| 2026-04-25 21:29 | 48.48460 | 12.99215 | 34326 ft | 490 kts | 107° |
| 2026-04-25 21:30 | 48.47726 | 13.02508 | 34081 ft | 496 kts | 107° |
| 2026-04-25 21:30 | 48.46617 | 13.07479 | 34122 ft | 504 kts | 107° |
| 2026-04-25 21:30 | 48.44727 | 13.15916 | 34102 ft | 512 kts | 107° |
| 2026-04-25 21:31 | 48.42315 | 13.27903 | 34078 ft | 511 kts | 98° |
| 2026-04-25 21:31 | 48.41692 | 13.38450 | 34078 ft | 505 kts | 86° |
| 2026-04-25 21:32 | 48.42243 | 13.48996 | 34070 ft | 503 kts | 81° |
| 2026-04-25 21:32 | 48.42924 | 13.59501 | 34074 ft | 503 kts | 81° |
| 2026-04-25 21:33 | 48.43557 | 13.69976 | 34074 ft | 503 kts | 82° |
| 2026-04-25 21:33 | 48.44147 | 13.80459 | 34071 ft | 504 kts | 82° |
| 2026-04-25 21:34 | 48.44718 | 13.90965 | 33841 ft | 501 kts | 82° |
| 2026-04-25 21:34 | 48.45001 | 13.96214 | 33473 ft | 503 kts | 82° |
| 2026-04-25 21:34 | 48.45283 | 14.01484 | 33070 ft | 505 kts | 82° |
| 2026-04-25 21:35 | 48.45564 | 14.06743 | 32727 ft | 506 kts | 82° |
| 2026-04-25 21:35 | 48.45842 | 14.12022 | 32405 ft | 506 kts | 82° |
| 2026-04-25 21:35 | 48.46118 | 14.17315 | 32047 ft | 506 kts | 82° |
| 2026-04-25 21:35 | 48.46394 | 14.22630 | 31656 ft | 508 kts | 82° |
| 2026-04-25 21:36 | 48.46669 | 14.27954 | 31178 ft | 510 kts | 82° |
| 2026-04-25 21:36 | 48.46943 | 14.33322 | 30333 ft | 511 kts | 83° |
| 2026-04-25 21:36 | 48.47205 | 14.38560 | 29649 ft | 504 kts | 83° |
| 2026-04-25 21:36 | 48.47465 | 14.43807 | 28964 ft | 496 kts | 83° |
| 2026-04-25 21:37 | 48.47717 | 14.48942 | 28341 ft | 489 kts | 83° |
| 2026-04-25 21:37 | 48.47885 | 14.52383 | 27935 ft | 485 kts | 83° |
| 2026-04-25 21:37 | 48.48209 | 14.59031 | 27145 ft | 477 kts | 83° |
| 2026-04-25 21:37 | 48.48449 | 14.64002 | 26544 ft | 471 kts | 83° |
| 2026-04-25 21:38 | 48.48682 | 14.68889 | 25979 ft | 466 kts | 83° |
| 2026-04-25 21:38 | 48.48912 | 14.73741 | 25421 ft | 461 kts | 83° |
| 2026-04-25 21:38 | 48.49139 | 14.78560 | 24848 ft | 457 kts | 83° |
| 2026-04-25 21:38 | 48.49361 | 14.83318 | 24301 ft | 453 kts | 83° |
| 2026-04-25 21:39 | 48.49579 | 14.88036 | 23750 ft | 450 kts | 83° |
| 2026-04-25 21:39 | 48.49794 | 14.92735 | 23107 ft | 447 kts | 83° |
| 2026-04-25 21:39 | 48.50005 | 14.97396 | 22520 ft | 443 kts | 83° |
| 2026-04-25 21:39 | 48.50212 | 15.02020 | 21963 ft | 439 kts | 83° |
| 2026-04-25 21:40 | 48.50420 | 15.06670 | 21416 ft | 435 kts | 83° |
| 2026-04-25 21:40 | 48.50620 | 15.11226 | 20877 ft | 432 kts | 83° |
| 2026-04-25 21:40 | 48.50816 | 15.15728 | 20365 ft | 429 kts | 83° |
| 2026-04-25 21:40 | 48.51011 | 15.20208 | 19845 ft | 426 kts | 83° |
| 2026-04-25 21:41 | 48.51119 | 15.24632 | 19301 ft | 428 kts | 89° |
| 2026-04-25 21:41 | 48.50868 | 15.29121 | 18849 ft | 433 kts | 96° |
| 2026-04-25 21:41 | 48.50281 | 15.33612 | 18405 ft | 437 kts | 103° |
| 2026-04-25 21:41 | 48.49516 | 15.38068 | 17948 ft | 437 kts | 103° |
| 2026-04-25 21:42 | 48.48738 | 15.42468 | 17608 ft | 434 kts | 103° |
| 2026-04-25 21:42 | 48.47958 | 15.46867 | 17317 ft | 431 kts | 103° |
| 2026-04-25 21:42 | 48.47190 | 15.51227 | 16979 ft | 429 kts | 103° |
| 2026-04-25 21:42 | 48.46434 | 15.55554 | 16619 ft | 428 kts | 103° |
| 2026-04-25 21:43 | 48.45676 | 15.59897 | 16269 ft | 426 kts | 103° |
| 2026-04-25 21:43 | 48.44924 | 15.64224 | 15930 ft | 425 kts | 103° |
| 2026-04-25 21:43 | 48.44186 | 15.68464 | 15620 ft | 423 kts | 103° |
| 2026-04-25 21:43 | 48.43446 | 15.72718 | 15303 ft | 421 kts | 103° |
| 2026-04-25 21:44 | 48.42700 | 15.77000 | 15003 ft | 420 kts | 103° |
| 2026-04-25 21:44 | 48.41961 | 15.81292 | 14881 ft | 435 kts | 103° |
| 2026-04-25 21:44 | 48.40442 | 15.90265 | 14797 ft | 432 kts | 104° |
| 2026-04-25 21:45 | 48.39701 | 15.94493 | 14381 ft | 408 kts | 104° |
| 2026-04-25 21:45 | 48.39204 | 15.97245 | 13873 ft | 412 kts | 104° |
| 2026-04-25 21:45 | 48.38190 | 16.02801 | 12984 ft | 410 kts | 104° |
| 2026-04-25 21:45 | 48.37449 | 16.06879 | 12453 ft | 405 kts | 104° |
| 2026-04-25 21:46 | 48.36708 | 16.10988 | 11922 ft | 400 kts | 104° |
| 2026-04-25 21:46 | 48.35982 | 16.15039 | 11375 ft | 397 kts | 104° |
| 2026-04-25 21:46 | 48.35266 | 16.19037 | 10815 ft | 394 kts | 104° |
| 2026-04-25 21:46 | 48.34558 | 16.22990 | 10276 ft | 391 kts | 104° |
| 2026-04-25 21:47 | 48.33856 | 16.26906 | 9712 ft | 388 kts | 104° |
| 2026-04-25 21:47 | 48.33146 | 16.30853 | 8975 ft | 389 kts | 104° |
| 2026-04-25 21:47 | 48.32454 | 16.34696 | 8845 ft | 372 kts | 104° |
| 2026-04-25 21:47 | 48.31809 | 16.38267 | 8628 ft | 338 kts | 104° |
| 2026-04-25 21:48 | 48.31215 | 16.41549 | 8287 ft | 312 kts | 104° |
| 2026-04-25 21:48 | 48.30649 | 16.44670 | 7870 ft | 306 kts | 104° |
| 2026-04-25 21:48 | 48.30102 | 16.47682 | 7611 ft | 299 kts | 105° |
| 2026-04-25 21:48 | 48.29249 | 16.50492 | 7313 ft | 289 kts | 130° |
| 2026-04-25 21:49 | 48.27820 | 16.52520 | 7364 ft | 288 kts | 146° |
| 2026-04-25 21:49 | 48.26207 | 16.54307 | 7366 ft | 290 kts | 146° |
| 2026-04-25 21:49 | 48.24575 | 16.56106 | 7367 ft | 290 kts | 146° |
| 2026-04-25 21:49 | 48.22951 | 16.57916 | 7235 ft | 291 kts | 146° |
| 2026-04-25 21:50 | 48.21329 | 16.59735 | 6979 ft | 290 kts | 146° |
| 2026-04-25 21:50 | 48.19719 | 16.61546 | 6727 ft | 285 kts | 146° |
| 2026-04-25 21:50 | 48.18276 | 16.63445 | 6448 ft | 277 kts | 127° |
| 2026-04-25 21:50 | 48.17624 | 16.65114 | 6269 ft | 270 kts | 115° |
| 2026-04-25 21:51 | 48.16561 | 16.68459 | 6065 ft | 265 kts | 115° |
| 2026-04-25 21:51 | 48.15750 | 16.70956 | 5894 ft | 266 kts | 115° |
| 2026-04-25 21:51 | 48.14945 | 16.73419 | 5628 ft | 263 kts | 115° |
| 2026-04-25 21:51 | 48.14138 | 16.75878 | 5361 ft | 262 kts | 115° |
| 2026-04-25 21:52 | 48.13340 | 16.78298 | 5117 ft | 261 kts | 115° |
| 2026-04-25 21:52 | 48.12528 | 16.80748 | 4869 ft | 260 kts | 115° |
| 2026-04-25 21:52 | 48.11731 | 16.83152 | 4609 ft | 259 kts | 115° |
| 2026-04-25 21:52 | 48.10924 | 16.85582 | 4307 ft | 259 kts | 115° |
| 2026-04-25 21:53 | 48.10124 | 16.87992 | 3988 ft | 257 kts | 115° |
| 2026-04-25 21:53 | 48.09352 | 16.90405 | 3679 ft | 253 kts | 108° |
| 2026-04-25 21:53 | 48.08602 | 16.92786 | 3350 ft | 255 kts | 128° |
| 2026-04-25 21:53 | 48.07227 | 16.94399 | 3062 ft | 252 kts | 162° |
| 2026-04-25 21:54 | 48.05535 | 16.94716 | 3027 ft | 242 kts | 195° |
| 2026-04-25 21:54 | 48.04057 | 16.93742 | 3013 ft | 231 kts | 227° |
| 2026-04-25 21:54 | 48.03181 | 16.91810 | 2985 ft | 219 kts | 257° |
| 2026-04-25 21:54 | 48.02836 | 16.89645 | 3006 ft | 218 kts | 264° |
| 2026-04-25 21:55 | 48.02563 | 16.87394 | 2988 ft | 217 kts | 265° |
| 2026-04-25 21:55 | 48.02375 | 16.85178 | 2979 ft | 210 kts | 277° |
| 2026-04-25 21:55 | 48.02737 | 16.83136 | 3005 ft | 208 kts | 292° |
| 2026-04-25 21:55 | 48.03264 | 16.81106 | 2989 ft | 203 kts | 295° |
| 2026-04-25 21:56 | 48.03819 | 16.79289 | 2981 ft | 187 kts | 297° |
| 2026-04-25 21:56 | 48.04200 | 16.78108 | 2993 ft | 187 kts | 298° |
| 2026-04-25 21:56 | 48.04955 | 16.75796 | 2989 ft | 187 kts | 298° |
| 2026-04-25 21:56 | 48.05529 | 16.74038 | 2989 ft | 185 kts | 297° |
| 2026-04-25 21:57 | 48.06091 | 16.72317 | 2744 ft | 180 kts | 297° |
| 2026-04-25 21:57 | 48.06624 | 16.70685 | 2523 ft | 169 kts | 297° |
| 2026-04-25 21:57 | 48.07126 | 16.69146 | 2287 ft | 161 kts | 297° |
| 2026-04-25 21:57 | 48.07597 | 16.67702 | 2100 ft | 148 kts | 296° |
| 2026-04-25 21:58 | 48.08039 | 16.66347 | 1896 ft | 143 kts | 295° |
| 2026-04-25 21:58 | 48.08473 | 16.65017 | 1736 ft | 140 kts | 296° |
| 2026-04-25 21:58 | 48.08868 | 16.63801 | 1523 ft | 122 kts | 297° |
| 2026-04-25 21:58 | 48.09251 | 16.62632 | 1380 ft | 128 kts | 297° |
| 2026-04-25 21:59 | 48.09649 | 16.61408 | 1176 ft | 137 kts | 296° |
| 2026-04-25 21:59 | 48.10068 | 16.60115 | 1029 ft | 139 kts | 296° |
| 2026-04-25 21:59 | 48.10497 | 16.58801 | 817 ft | 138 kts | 296° |
| 2026-04-25 22:00 | 48.11263 | 16.56464 | 628 ft | 97 kts | 296° |
| 2026-04-25 22:00 | 48.11491 | 16.55767 | 624 ft | 61 kts | 296° |
| 2026-04-25 22:00 | 48.11599 | 16.55460 | 624 ft | 33 kts | 305° |
| 2026-04-25 22:00 | 48.11710 | 16.55274 | 620 ft | 21 kts | 316° |
| 2026-04-25 22:01 | 48.11784 | 16.55175 | 621 ft | 12 kts | 326° |
| 2026-04-25 22:01 | 48.11789 | 16.55170 | 628 ft | 1 kts | 327° |
| 2026-04-25 22:01 | 48.11791 | 16.55168 | 625 ft | 1 kts | 328° |
| 2026-04-25 22:01 | 48.11792 | 16.55167 | 624 ft | 0 kts | 328° |
| 2026-04-25 22:02 | 48.11830 | 16.55144 | 625 ft | 12 kts | 346° |
| 2026-04-25 22:02 | 48.11926 | 16.55186 | 617 ft | 15 kts | 15° |
| 2026-04-25 22:02 | 48.11998 | 16.55098 | 616 ft | 15 kts | 296° |
| 2026-04-25 22:02 | 48.12042 | 16.54961 | 624 ft | 15 kts | 296° |
| 2026-04-25 22:03 | 48.12085 | 16.54900 | 627 ft | 7 kts | 2° |
| 2026-04-25 22:03 | 48.12129 | 16.54930 | 624 ft | 7 kts | 29° |
| 2026-04-25 22:03 | 48.12140 | 16.54937 | 625 ft | 0 kts | 25° |